Airfield :
LOGIN :

Register | Disclaimer

   EN    FR    IT 

 










Legend :    VFR   Marginal VFR   IFR   Intensive IFR   Very Intensive IFR
Visi :
Ceiling :
>= 8 km
>= 3000ft
5 to 8 km
1000 to 3000 ft
1500m to 5 km
500 to 1000 ft
800 to 1500m
200 to 500 ft
< 800m
< 200 ft
Symbols :   Thunderstorms  Fog  Heavy snow  Heavy precipitations  Wind > 20 kt
SIGMETs :     Misc.  Thunderstorms  Icing  Turbulence  Mountain Waves  Volcanic Ashes






- Airport Elevation : 353 ft
- IATA code : ZAG


LDZA - Zagreb Pleso

CURRENT METAR :
  • 271730Z VRB02KT 0700 R05/1600U R23/1900D FG VV002 02/02 Q1018 BECMG 0200

EXPIRED METARs :
  • 271700Z 25002KT 1000 R05/2000N R23/1900N BR OVC002 02/02 Q1018 BECMG 0200 FG VV002
  • 271630Z VRB02KT 1500 BR OVC002 02/02 Q1018 BECMG 0200 FG VV002
  • 271600Z VRB02KT 2000 BR OVC002 02/02 Q1018 BECMG 0200 FG VV002
  • 271530Z VRB02KT 3000 BR OVC003 03/02 Q1018 NOSIG
  • 271500Z VRB01KT 3000 BR OVC004 03/02 Q1018 NOSIG

TAF TAF LDZA
Valid from the 27 at 18:00 until the 28 at 18:00 UTC


271731Z 2718/2818 VRB02KT 0200 FG VV001 TX10/2813Z TNM01/2800Z
PROB40 2721/2802 FZFG
BECMG 2805/2807 23010KT 9999 NSW BKN020
PROB30 2807/2811 23005KT 4000 BR BKN007
PROB30
TEMPO 2811/2816 23015G25KT
PROB30
TEMPO 2816/2818 RA
ATIS : +385 1 6-259-214



MET'MAP, your aeronautical weather chart ! - Copyright ORBIFLY December 2007 - Disclaimer

ORBIFLY MET'MAP TEAM :

Programming & Development : Alexandra Zaïnal
Concept & original design : Baudouin d'Aumeries
Assistance for programming : Marc-Olivier Méhu
Technical & hardware support : Manuel Goepfert

Contact : metmap@orbifly.com




SOURCES & CREDITS :

   NOAA